createdAt,value
2022-11-29T00:01:19.858Z,100.00
2022-11-29T00:03:46.778Z,100.00
2022-11-29T00:06:20.017Z,100.00
2022-11-29T00:08:47.116Z,100.00
2022-11-29T00:11:16.936Z,100.00
2022-11-29T00:13:43.513Z,100.00
2022-11-29T00:16:11.392Z,100.00
2022-11-29T00:18:37.942Z,100.00
2022-11-29T00:21:06.224Z,100.00
2022-11-29T00:23:32.770Z,100.00
2022-11-29T00:26:07.656Z,100.00
2022-11-29T00:28:35.951Z,100.00
2022-11-29T00:31:14.556Z,100.00
2022-11-29T00:33:41.071Z,100.00
2022-11-29T00:36:07.844Z,100.00
2022-11-29T00:38:34.550Z,100.00
2022-11-29T00:41:01.014Z,100.00
2022-11-29T00:43:27.515Z,100.00
2022-11-29T00:45:54.205Z,100.00
2022-11-29T00:48:20.783Z,100.00
2022-11-29T00:50:47.249Z,100.00
2022-11-29T00:53:13.743Z,100.00
2022-11-29T00:55:40.189Z,100.00
2022-11-29T00:58:06.761Z,100.00
2022-11-29T01:00:33.253Z,100.00
2022-11-29T01:02:59.957Z,100.00
2022-11-29T01:05:26.594Z,100.00
2022-11-29T01:07:53.348Z,100.00
2022-11-29T01:10:20.067Z,100.00
2022-11-29T01:12:46.598Z,100.00
2022-11-29T01:15:13.182Z,100.00
2022-11-29T01:17:40.779Z,100.00
2022-11-29T01:20:10.263Z,100.00
2022-11-29T01:22:37.768Z,100.00
2022-11-29T01:25:05.618Z,100.00
2022-11-29T01:27:32.717Z,100.00
2022-11-29T01:29:59.201Z,100.00
2022-11-29T01:32:25.758Z,100.00
2022-11-29T01:34:52.203Z,100.00
2022-11-29T01:37:18.703Z,100.00
2022-11-29T01:39:45.209Z,100.00
2022-11-29T01:42:13.191Z,100.00
2022-11-29T01:44:39.635Z,100.00
2022-11-29T01:47:06.088Z,100.00
2022-11-29T01:49:35.873Z,100.00
2022-11-29T01:52:06.518Z,100.00
2022-11-29T01:54:36.602Z,100.00
2022-11-29T01:57:06.291Z,100.00
2022-11-29T01:59:33.996Z,100.00
2022-11-29T02:02:06.947Z,100.00
2022-11-29T02:04:38.304Z,100.00
2022-11-29T02:07:05.263Z,100.00
2022-11-29T02:09:31.812Z,100.00
2022-11-29T02:12:01.320Z,100.00
2022-11-29T02:14:57.268Z,100.00
2022-11-29T02:17:40.508Z,100.00
2022-11-29T02:20:34.902Z,100.00
2022-11-29T02:23:23.149Z,100.00
2022-11-29T02:26:42.772Z,100.00
2022-11-29T02:29:27.702Z,100.00
2022-11-29T02:32:31.828Z,100.00
2022-11-29T02:35:07.898Z,100.00
2022-11-29T02:37:43.360Z,100.00
2022-11-29T02:40:38.805Z,100.00
2022-11-29T02:43:08.416Z,100.00
2022-11-29T02:45:46.906Z,100.00
2022-11-29T02:48:16.390Z,100.00
2022-11-29T02:50:55.535Z,100.00
2022-11-29T02:53:30.199Z,100.00
2022-11-29T02:56:11.037Z,100.00
2022-11-29T02:58:59.122Z,100.00
2022-11-29T03:01:47.131Z,100.00
2022-11-29T03:04:23.469Z,100.00
2022-11-29T03:07:11.508Z,100.00
2022-11-29T03:09:47.517Z,100.00
2022-11-29T03:12:35.531Z,100.00
2022-11-29T03:15:21.383Z,100.00
2022-11-29T03:18:06.292Z,100.00
2022-11-29T03:20:38.555Z,100.00
2022-11-29T03:23:13.715Z,100.00
2022-11-29T03:26:19.025Z,100.00
2022-11-29T03:29:02.498Z,100.00
2022-11-29T03:31:37.514Z,100.00
2022-11-29T03:34:33.219Z,100.00
2022-11-29T03:37:05.399Z,100.00
2022-11-29T03:39:44.167Z,100.00
2022-11-29T03:42:45.535Z,100.00
2022-11-29T03:45:19.558Z,100.00
2022-11-29T03:48:03.605Z,100.00
2022-11-29T03:50:44.124Z,100.00
2022-11-29T03:53:31.796Z,100.00
2022-11-29T03:56:04.371Z,100.00
2022-11-29T03:58:35.754Z,100.00
2022-11-29T04:01:21.095Z,100.00
2022-11-29T04:04:02.883Z,100.00
2022-11-29T04:07:03.792Z,100.00
2022-11-29T04:09:48.858Z,100.00
2022-11-29T04:12:18.508Z,100.00
2022-11-29T04:15:30.248Z,100.00
2022-11-29T04:18:09.061Z,100.00
2022-11-29T04:21:00.393Z,100.00
2022-11-29T04:23:51.846Z,100.00
2022-11-29T04:26:39.633Z,100.00
2022-11-29T04:29:06.083Z,100.00
2022-11-29T04:31:56.626Z,100.00
2022-11-29T04:34:38.671Z,100.00
2022-11-29T04:37:15.250Z,100.00
2022-11-29T04:39:58.764Z,100.00
2022-11-29T04:42:43.802Z,100.00
2022-11-29T04:45:47.770Z,100.00
2022-11-29T04:48:26.047Z,100.00
2022-11-29T04:50:55.767Z,100.00
2022-11-29T04:53:37.172Z,100.00
2022-11-29T04:56:12.456Z,100.00
2022-11-29T04:59:33.471Z,100.00
2022-11-29T05:02:12.964Z,100.00
2022-11-29T05:04:53.249Z,100.00
2022-11-29T05:07:58.256Z,100.00
2022-11-29T05:10:56.253Z,100.00
2022-11-29T05:13:41.410Z,100.00
2022-11-29T05:16:29.877Z,100.00
2022-11-29T05:19:35.068Z,100.00
2022-11-29T05:22:27.638Z,100.00
2022-11-29T05:25:19.107Z,100.00
2022-11-29T05:28:09.698Z,100.00
2022-11-29T05:31:16.115Z,100.00
2022-11-29T05:34:08.188Z,100.00
2022-11-29T05:36:49.935Z,100.00
2022-11-29T05:39:38.190Z,100.00
2022-11-29T05:42:10.678Z,100.00
2022-11-29T05:44:56.833Z,100.00
2022-11-29T05:47:36.052Z,100.00
2022-11-29T05:50:10.701Z,100.00
2022-11-29T05:53:04.921Z,100.00
2022-11-29T05:55:50.148Z,100.00
2022-11-29T05:58:32.522Z,100.00
2022-11-29T06:01:13.265Z,100.00
2022-11-29T06:03:51.081Z,100.00
2022-11-29T06:06:43.181Z,100.00
2022-11-29T06:09:26.747Z,100.00
2022-11-29T06:11:58.565Z,100.00
2022-11-29T06:14:46.738Z,100.00
2022-11-29T06:17:39.067Z,100.00
2022-11-29T06:20:24.969Z,100.00
2022-11-29T06:23:12.314Z,100.00
2022-11-29T06:26:19.258Z,100.00
2022-11-29T06:28:51.820Z,100.00
2022-11-29T06:31:29.049Z,99.81
2022-11-29T06:34:10.303Z,100.00
2022-11-29T06:36:45.064Z,100.00
2022-11-29T06:39:12.008Z,100.00
2022-11-29T06:41:38.599Z,100.00
2022-11-29T06:44:05.774Z,99.66
2022-11-29T06:46:48.518Z,99.84
2022-11-29T06:49:51.757Z,100.00
2022-11-29T06:52:37.097Z,99.79
2022-11-29T06:55:12.571Z,99.50
2022-11-29T06:58:16.210Z,99.93
2022-11-29T07:01:01.861Z,100.00
2022-11-29T07:04:10.396Z,100.00
2022-11-29T07:06:37.198Z,99.98
2022-11-29T07:09:13.505Z,99.78
2022-11-29T07:11:40.851Z,99.96
2022-11-29T07:14:08.080Z,99.79
2022-11-29T07:16:57.322Z,100.00
2022-11-29T07:20:00.449Z,100.00
2022-11-29T07:22:35.934Z,99.85
2022-11-29T07:25:16.996Z,100.00
2022-11-29T07:27:46.454Z,100.00
2022-11-29T07:30:18.751Z,99.65
2022-11-29T07:33:00.885Z,99.33
2022-11-29T07:35:38.567Z,99.16
2022-11-29T07:38:23.910Z,99.52
2022-11-29T07:41:13.891Z,99.60
2022-11-29T07:44:05.357Z,100.00
2022-11-29T07:46:31.919Z,99.41
2022-11-29T07:48:58.469Z,99.49
2022-11-29T07:51:25.644Z,99.41
2022-11-29T07:53:52.176Z,99.04
2022-11-29T07:56:18.696Z,99.50
2022-11-29T07:58:45.209Z,99.24
2022-11-29T08:01:11.977Z,99.23
2022-11-29T08:03:38.507Z,99.25
2022-11-29T08:06:05.062Z,98.98
2022-11-29T08:08:31.615Z,99.24
2022-11-29T08:10:58.113Z,98.84
2022-11-29T08:13:24.648Z,99.34
2022-11-29T08:15:51.118Z,98.83
2022-11-29T08:18:17.898Z,98.69
2022-11-29T08:20:44.790Z,99.05
2022-11-29T08:23:12.581Z,98.64
2022-11-29T08:25:39.775Z,99.83
2022-11-29T08:28:06.394Z,99.76
2022-11-29T08:30:32.951Z,99.70
2022-11-29T08:32:59.458Z,99.54
2022-11-29T08:35:25.994Z,99.30
2022-11-29T08:37:54.483Z,98.63
2022-11-29T08:40:21.047Z,98.92
2022-11-29T08:42:47.523Z,98.86
2022-11-29T08:45:14.032Z,98.91
2022-11-29T08:47:40.535Z,99.53
2022-11-29T08:50:16.100Z,98.94
2022-11-29T08:52:45.603Z,99.45
2022-11-29T08:55:12.221Z,99.70
2022-11-29T08:57:40.432Z,98.94
2022-11-29T09:00:08.150Z,99.34
2022-11-29T09:02:36.450Z,99.26
2022-11-29T09:05:04.215Z,98.77
2022-11-29T09:07:30.921Z,99.27
2022-11-29T09:09:57.506Z,99.42
2022-11-29T09:12:24.040Z,99.75
2022-11-29T09:14:50.502Z,98.39
2022-11-29T09:17:17.051Z,99.24
2022-11-29T09:19:43.510Z,99.22
2022-11-29T09:22:10.063Z,98.73
2022-11-29T09:24:36.568Z,99.09
2022-11-29T09:27:03.147Z,98.73
2022-11-29T09:29:29.618Z,99.36
2022-11-29T09:31:56.435Z,99.18
2022-11-29T09:34:23.481Z,98.65
2022-11-29T09:36:50.112Z,98.36
2022-11-29T09:39:16.603Z,98.44
2022-11-29T09:42:07.664Z,99.31
2022-11-29T09:44:50.469Z,98.98
2022-11-29T09:47:24.978Z,98.99
2022-11-29T09:50:03.577Z,99.00
2022-11-29T09:52:36.225Z,98.87
2022-11-29T09:55:43.874Z,98.79
2022-11-29T09:58:15.530Z,99.04
2022-11-29T10:00:46.032Z,98.86
2022-11-29T10:03:25.001Z,98.75
2022-11-29T10:05:57.117Z,98.62
2022-11-29T10:08:31.716Z,98.83
2022-11-29T10:11:16.131Z,99.23
2022-11-29T10:13:47.251Z,99.25
2022-11-29T10:16:36.206Z,98.57
2022-11-29T10:19:11.823Z,98.45
2022-11-29T10:21:43.632Z,98.13
2022-11-29T10:24:14.486Z,98.44
2022-11-29T10:26:42.156Z,98.54
2022-11-29T10:29:14.247Z,98.13
2022-11-29T10:31:44.150Z,98.39
2022-11-29T10:34:24.950Z,98.55
2022-11-29T10:36:57.667Z,97.97
2022-11-29T10:39:29.810Z,98.43
2022-11-29T10:41:59.921Z,98.05
2022-11-29T10:44:27.018Z,97.98
2022-11-29T10:46:55.030Z,98.67
2022-11-29T10:49:26.833Z,98.54
2022-11-29T10:51:53.394Z,98.19
2022-11-29T10:54:28.931Z,98.00
2022-11-29T10:56:58.934Z,97.61
2022-11-29T10:59:28.194Z,98.36
2022-11-29T11:01:55.565Z,97.99
2022-11-29T11:04:35.140Z,97.99
2022-11-29T11:07:06.032Z,97.93
2022-11-29T11:09:39.501Z,98.09
2022-11-29T11:12:16.848Z,98.50
2022-11-29T11:14:44.778Z,98.39
2022-11-29T11:17:15.737Z,97.90
2022-11-29T11:19:42.399Z,98.09
2022-11-29T11:22:20.869Z,98.47
2022-11-29T11:25:23.945Z,97.85
2022-11-29T11:27:50.873Z,97.53
2022-11-29T11:30:28.084Z,97.58
2022-11-29T11:33:19.376Z,97.09
2022-11-29T11:36:06.105Z,97.75
2022-11-29T11:38:35.060Z,96.77
2022-11-29T11:41:07.447Z,97.42
2022-11-29T11:43:34.568Z,97.18
2022-11-29T11:46:01.375Z,97.80
2022-11-29T11:48:28.691Z,97.29
2022-11-29T11:50:59.158Z,97.12
2022-11-29T11:53:36.441Z,97.88
2022-11-29T11:56:05.975Z,97.71
2022-11-29T11:58:37.587Z,97.83
2022-11-29T12:01:13.062Z,97.70
2022-11-29T12:04:01.029Z,97.40
2022-11-29T12:06:30.562Z,96.72
2022-11-29T12:09:17.206Z,96.62
2022-11-29T12:11:51.109Z,96.72
2022-11-29T12:14:59.350Z,96.83
2022-11-29T12:17:38.007Z,96.85
2022-11-29T12:20:22.967Z,97.45
2022-11-29T12:23:05.664Z,97.76
2022-11-29T12:25:39.596Z,97.17
2022-11-29T12:28:15.842Z,96.70
2022-11-29T12:30:59.022Z,96.45
2022-11-29T12:33:37.681Z,96.75
2022-11-29T12:36:30.944Z,97.04
2022-11-29T12:39:09.555Z,96.71
2022-11-29T12:42:00.127Z,96.92
2022-11-29T12:44:44.113Z,96.32
2022-11-29T12:47:42.105Z,96.38
2022-11-29T12:50:46.507Z,97.09
2022-11-29T12:53:47.090Z,96.56
2022-11-29T12:56:33.961Z,96.93
2022-11-29T12:59:30.377Z,96.37
2022-11-29T13:02:12.087Z,96.09
2022-11-29T13:04:44.858Z,96.58
2022-11-29T13:07:41.142Z,96.07
2022-11-29T13:10:41.819Z,96.10
2022-11-29T13:13:26.514Z,96.28
2022-11-29T13:16:02.474Z,96.31
2022-11-29T13:18:54.373Z,96.45
2022-11-29T13:21:46.681Z,96.21
2022-11-29T13:24:24.194Z,95.94
2022-11-29T13:26:52.528Z,95.92
2022-11-29T13:29:23.739Z,95.66
2022-11-29T13:31:51.639Z,94.88
2022-11-29T13:34:21.184Z,94.96
2022-11-29T13:37:07.567Z,95.46
2022-11-29T13:39:40.067Z,96.06
2022-11-29T13:42:48.183Z,95.37
2022-11-29T13:45:27.113Z,95.20
2022-11-29T13:48:00.125Z,95.03
2022-11-29T13:50:45.883Z,95.22
2022-11-29T13:53:20.361Z,95.15
2022-11-29T13:55:48.493Z,94.92
2022-11-29T13:58:17.413Z,94.30
2022-11-29T14:00:44.779Z,94.20
2022-11-29T14:03:23.536Z,94.96
2022-11-29T14:05:54.443Z,95.20
2022-11-29T14:08:37.932Z,94.64
2022-11-29T14:11:14.877Z,94.78
2022-11-29T14:13:41.339Z,94.16
2022-11-29T14:16:18.047Z,94.86
2022-11-29T14:18:44.597Z,94.74
2022-11-29T14:21:11.601Z,94.47
2022-11-29T14:23:39.743Z,94.61
2022-11-29T14:26:06.219Z,94.80
2022-11-29T14:28:37.359Z,95.01
2022-11-29T14:31:05.633Z,95.16
2022-11-29T14:33:38.885Z,94.84
2022-11-29T14:36:43.412Z,94.40
2022-11-29T14:39:18.941Z,94.91
2022-11-29T14:41:45.535Z,94.28
2022-11-29T14:44:34.137Z,95.27
2022-11-29T14:47:18.849Z,95.17
2022-11-29T14:49:46.013Z,94.84
2022-11-29T14:52:15.640Z,95.16
2022-11-29T14:54:55.139Z,95.05
2022-11-29T14:57:46.958Z,95.30
2022-11-29T15:00:48.888Z,95.46
2022-11-29T15:03:26.299Z,95.20
2022-11-29T15:06:16.045Z,95.05
2022-11-29T15:08:54.814Z,95.34
2022-11-29T15:11:50.679Z,94.80
2022-11-29T15:14:28.175Z,95.67
2022-11-29T15:17:04.447Z,94.91
2022-11-29T15:19:57.608Z,95.55
2022-11-29T15:22:30.779Z,95.83
2022-11-29T15:25:02.092Z,95.88
2022-11-29T15:27:28.859Z,95.78
2022-11-29T15:29:55.435Z,96.02
2022-11-29T15:32:30.064Z,95.86
2022-11-29T15:34:57.353Z,95.71
2022-11-29T15:37:35.921Z,95.79
2022-11-29T15:40:05.810Z,95.08
2022-11-29T15:42:50.281Z,95.59
2022-11-29T15:45:27.186Z,95.44
2022-11-29T15:47:54.600Z,95.73
2022-11-29T15:50:32.630Z,96.18
2022-11-29T15:53:04.124Z,96.13
2022-11-29T15:55:31.099Z,95.72
2022-11-29T15:58:05.511Z,95.80
2022-11-29T16:00:35.823Z,95.80
2022-11-29T16:03:04.822Z,96.15
2022-11-29T16:05:34.767Z,95.94
2022-11-29T16:08:16.360Z,95.73
2022-11-29T16:10:49.592Z,96.26
2022-11-29T16:13:25.506Z,95.77
2022-11-29T16:16:11.071Z,96.01
2022-11-29T16:18:40.335Z,96.02
2022-11-29T16:21:08.006Z,95.86
2022-11-29T16:23:35.786Z,95.73
2022-11-29T16:26:13.070Z,95.28
2022-11-29T16:28:44.576Z,95.30
2022-11-29T16:31:19.355Z,95.74
2022-11-29T16:33:48.030Z,94.79
2022-11-29T16:36:23.644Z,95.94
2022-11-29T16:38:54.315Z,95.58
2022-11-29T16:41:37.874Z,95.77
2022-11-29T16:44:06.654Z,96.35
2022-11-29T16:46:35.086Z,96.26
2022-11-29T16:49:23.931Z,96.24
2022-11-29T16:51:52.000Z,95.82
2022-11-29T16:54:24.847Z,95.01
2022-11-29T16:56:53.505Z,96.12
2022-11-29T16:59:27.795Z,96.04
2022-11-29T17:01:55.771Z,95.46
2022-11-29T17:04:23.783Z,96.21
2022-11-29T17:06:53.190Z,95.81
2022-11-29T17:09:28.133Z,96.03
2022-11-29T17:11:56.087Z,95.42
2022-11-29T17:14:22.913Z,96.01
2022-11-29T17:16:49.551Z,96.29
2022-11-29T17:19:17.142Z,95.80
2022-11-29T17:21:43.893Z,96.58
2022-11-29T17:24:13.105Z,96.06
2022-11-29T17:26:40.660Z,96.66
2022-11-29T17:29:09.213Z,96.73
2022-11-29T17:31:35.755Z,97.01
2022-11-29T17:34:02.781Z,96.86
2022-11-29T17:36:29.617Z,96.37
2022-11-29T17:38:56.302Z,96.99
2022-11-29T17:41:24.531Z,96.66
2022-11-29T17:43:52.433Z,97.22
2022-11-29T17:46:22.038Z,97.25
2022-11-29T17:48:49.999Z,96.64
2022-11-29T17:51:50.022Z,97.44
2022-11-29T17:54:06.617Z,96.60
2022-11-29T17:56:33.700Z,96.67
2022-11-29T17:59:02.823Z,96.98
2022-11-29T18:01:32.176Z,97.14
2022-11-29T18:04:01.410Z,96.86
2022-11-29T18:06:30.070Z,96.93
2022-11-29T18:09:00.727Z,97.39
2022-11-29T18:11:42.969Z,97.46
2022-11-29T18:14:13.508Z,97.31
2022-11-29T18:16:40.243Z,97.34
2022-11-29T18:19:19.081Z,97.90
2022-11-29T18:21:45.699Z,97.18
2022-11-29T18:24:13.315Z,97.45
2022-11-29T18:26:40.724Z,96.76
2022-11-29T18:29:08.063Z,97.26
2022-11-29T18:31:37.420Z,97.08
2022-11-29T18:34:06.173Z,97.81
2022-11-29T18:36:36.910Z,96.77
2022-11-29T18:39:17.587Z,97.02
2022-11-29T18:41:48.096Z,97.04
2022-11-29T18:44:16.426Z,97.53
2022-11-29T18:46:44.271Z,97.04
2022-11-29T18:49:16.358Z,97.12
2022-11-29T18:51:44.145Z,97.51
2022-11-29T18:54:11.109Z,96.83
2022-11-29T18:56:38.144Z,96.98
2022-11-29T18:59:10.235Z,96.89
2022-11-29T19:01:38.923Z,96.86
2022-11-29T19:04:05.447Z,96.48
2022-11-29T19:06:39.191Z,96.89
2022-11-29T19:09:10.375Z,97.19
2022-11-29T19:11:37.070Z,97.32
2022-11-29T19:14:05.909Z,97.53
2022-11-29T19:16:34.394Z,96.93
2022-11-29T19:19:01.486Z,97.21
2022-11-29T19:21:31.058Z,97.50
2022-11-29T19:24:00.335Z,97.41
2022-11-29T19:26:28.871Z,97.67
2022-11-29T19:28:55.958Z,97.80
2022-11-29T19:31:23.876Z,97.42
2022-11-29T19:33:51.374Z,97.75
2022-11-29T19:36:29.564Z,97.47
2022-11-29T19:38:59.492Z,96.78
2022-11-29T19:41:28.814Z,96.86
2022-11-29T19:44:01.271Z,97.47
2022-11-29T19:46:30.933Z,97.03
2022-11-29T19:49:00.546Z,97.21
2022-11-29T19:51:28.040Z,97.28
2022-11-29T19:53:57.187Z,97.46
2022-11-29T19:56:23.708Z,96.98
2022-11-29T19:58:50.743Z,97.23
2022-11-29T20:01:23.077Z,96.56
2022-11-29T20:03:50.292Z,96.71
2022-11-29T20:06:18.330Z,97.05
2022-11-29T20:08:45.072Z,97.00
2022-11-29T20:11:22.711Z,97.05
2022-11-29T20:14:03.269Z,97.14
2022-11-29T20:16:30.595Z,97.57
2022-11-29T20:18:57.618Z,96.93
2022-11-29T20:21:45.645Z,96.26
2022-11-29T20:24:13.183Z,97.49
2022-11-29T20:26:41.531Z,97.13
2022-11-29T20:29:08.690Z,97.43
2022-11-29T20:31:36.851Z,96.77
2022-11-29T20:34:05.788Z,96.65
2022-11-29T20:37:04.763Z,96.99
2022-11-29T20:39:54.325Z,97.72
2022-11-29T20:42:51.682Z,97.12
2022-11-29T20:45:18.713Z,97.07
2022-11-29T20:48:03.789Z,96.22
2022-11-29T20:50:32.032Z,96.86
2022-11-29T20:53:05.764Z,97.13
2022-11-29T20:55:32.453Z,96.51
2022-11-29T20:57:58.966Z,96.46
2022-11-29T21:00:25.590Z,96.93
2022-11-29T21:02:52.042Z,96.53
2022-11-29T21:05:18.698Z,96.63
2022-11-29T21:07:45.428Z,97.20
2022-11-29T21:10:12.477Z,96.85
2022-11-29T21:12:39.262Z,97.25
2022-11-29T21:15:06.500Z,96.57
2022-11-29T21:17:34.060Z,97.09
2022-11-29T21:20:01.097Z,97.15
2022-11-29T21:22:35.089Z,96.96
2022-11-29T21:25:25.755Z,96.70
2022-11-29T21:27:54.630Z,96.47
2022-11-29T21:30:23.318Z,97.13
2022-11-29T21:32:50.290Z,97.16
2022-11-29T21:35:17.298Z,97.03
2022-11-29T21:37:44.783Z,97.23
2022-11-29T21:40:12.550Z,96.68
2022-11-29T21:42:39.253Z,96.43
2022-11-29T21:45:11.678Z,96.51
2022-11-29T21:47:41.826Z,96.87
2022-11-29T21:50:08.713Z,96.57
2022-11-29T21:52:35.211Z,96.38
2022-11-29T21:55:02.019Z,96.61
2022-11-29T21:57:28.518Z,96.42
2022-11-29T21:59:55.008Z,96.37
2022-11-29T22:02:21.603Z,96.29
2022-11-29T22:04:48.456Z,96.55
2022-11-29T22:07:15.176Z,97.07
2022-11-29T22:09:41.719Z,96.43
2022-11-29T22:12:32.052Z,96.33
2022-11-29T22:14:55.176Z,97.01
2022-11-29T22:17:21.627Z,97.19
2022-11-29T22:19:48.131Z,97.05
2022-11-29T22:22:14.598Z,97.05
2022-11-29T22:24:41.424Z,96.57
2022-11-29T22:27:08.440Z,96.62
2022-11-29T22:29:34.943Z,96.89
2022-11-29T22:32:01.383Z,96.46
2022-11-29T22:34:28.262Z,96.56
2022-11-29T22:36:55.014Z,96.66
2022-11-29T22:39:23.205Z,96.28
2022-11-29T22:41:54.201Z,96.42
2022-11-29T22:44:22.738Z,96.60
2022-11-29T22:46:49.541Z,96.84
2022-11-29T22:49:16.102Z,96.60
2022-11-29T22:51:42.582Z,96.81
2022-11-29T22:54:10.621Z,97.35
2022-11-29T22:56:39.311Z,97.06
2022-11-29T22:59:05.913Z,97.06
2022-11-29T23:01:34.874Z,96.72
2022-11-29T23:04:04.126Z,96.32
2022-11-29T23:06:42.685Z,96.83
2022-11-29T23:09:15.133Z,97.27
2022-11-29T23:11:42.925Z,96.78
2022-11-29T23:14:09.973Z,96.71
2022-11-29T23:16:36.696Z,96.82
2022-11-29T23:19:03.258Z,97.18
2022-11-29T23:21:32.371Z,96.71
2022-11-29T23:23:59.629Z,96.66
2022-11-29T23:26:27.101Z,96.69
2022-11-29T23:28:55.186Z,96.36
2022-11-29T23:31:23.718Z,96.67
2022-11-29T23:33:51.264Z,96.92
2022-11-29T23:36:17.883Z,97.18
2022-11-29T23:38:44.752Z,96.65
2022-11-29T23:41:12.073Z,96.51
2022-11-29T23:43:41.522Z,96.68
2022-11-29T23:46:12.300Z,96.46
2022-11-29T23:48:38.889Z,97.08
2022-11-29T23:51:05.730Z,96.89
2022-11-29T23:53:32.712Z,96.77
2022-11-29T23:56:05.241Z,96.39
2022-11-29T23:58:33.172Z,96.63
